Time;durP1;ratioP1;P1;durP2;ratioP2;P2;SDS_P1;SDS_P2;PMS_P1;PMS_P2;Temp;Humidity;BMP_temperature;BMP_pressure;BME280_temperature;BME280_humidity;BME280_pressure;Samples;Min_cycle;Max_cycle;Signal;HPM_P1;HPM_P2
2022/09/27 00:01:58;;;;;;;6.82;2.00;;;12.10;99.90;;;11.97;100.00;98977.78;5250601;28;20050;-88
2022/09/27 00:04:30;;;;;;;5.25;2.40;;;12.00;99.90;;;11.90;100.00;98982.13;5249240;28;20188;-87
2022/09/27 00:07:02;;;;;;;2.50;1.85;;;11.90;99.90;;;11.87;100.00;98984.75;5250905;28;20124;-87
2022/09/27 00:09:35;;;;;;;2.97;1.60;;;11.90;99.90;;;11.86;100.00;98993.41;5249761;28;20147;-88
2022/09/27 00:12:09;;;;;;;4.05;1.67;;;11.90;99.90;;;11.83;100.00;98996.03;5250320;28;20506;-88
2022/09/27 00:14:41;;;;;;;3.45;1.73;;;11.80;99.90;;;11.82;100.00;99002.13;5249453;28;20139;-88
2022/09/27 00:17:14;;;;;;;3.10;1.58;;;11.80;99.90;;;11.80;100.00;99006.44;5249756;28;20048;-87
2022/09/27 00:19:46;;;;;;;3.08;1.40;;;11.80;99.90;;;11.76;100.00;99010.78;5250278;28;20119;-87
2022/09/27 00:22:18;;;;;;;3.33;1.55;;;11.80;99.90;;;11.76;100.00;99010.78;5250112;28;20046;-88
2022/09/27 00:24:50;;;;;;;5.43;1.58;;;11.70;99.90;;;11.72;100.00;99018.59;5249206;28;20143;-87
2022/09/27 00:27:25;;;;;;;3.75;1.75;;;11.70;99.90;;;11.67;100.00;99009.03;5249026;28;20075;-88
2022/09/27 00:29:58;;;;;;;4.10;1.40;;;11.70;99.90;;;11.69;100.00;99019.47;5248897;28;20049;-88
2022/09/27 00:32:30;;;;;;;1.75;1.20;;;11.70;99.90;;;11.67;100.00;99016.88;5249028;28;20135;-88
2022/09/27 00:35:02;;;;;;;2.67;1.13;;;11.70;99.90;;;11.64;100.00;99019.47;5250570;28;20123;-88
2022/09/27 00:37:34;;;;;;;1.85;1.08;;;11.70;99.90;;;11.63;100.00;99024.69;5249192;28;20083;-87
2022/09/27 00:40:08;;;;;;;4.75;1.45;;;11.70;99.90;;;11.59;100.00;99029.00;5248912;28;20040;-87
2022/09/27 00:42:41;;;;;;;2.85;1.77;;;11.70;99.90;;;11.57;100.00;99025.53;5249982;28;20415;-87
2022/09/27 00:45:17;;;;;;;1.55;1.10;;;11.60;99.90;;;11.54;100.00;99025.53;5248645;28;20192;-88
2022/09/27 00:47:54;;;;;;;4.32;1.00;;;11.60;99.90;;;11.53;100.00;99028.97;5249163;28;20116;-88
2022/09/27 00:50:33;;;;;;;3.83;1.30;;;11.50;99.90;;;11.43;100.00;99029.84;5232630;28;20101;-88
2022/09/27 00:53:14;;;;;;;2.05;1.08;;;11.50;99.90;;;11.46;100.00;99048.09;5249166;28;20048;-86
2022/09/27 00:55:53;;;;;;;3.60;1.40;;;11.50;99.90;;;11.44;100.00;99041.16;5249906;28;20048;-87
2022/09/27 00:58:33;;;;;;;4.50;1.15;;;11.50;99.90;;;11.47;100.00;99044.63;5249073;28;20045;-87
2022/09/27 01:01:09;;;;;;;5.00;1.33;;;11.50;99.90;;;11.45;100.00;99043.75;5249125;28;20140;-87
2022/09/27 01:03:51;;;;;;;3.30;1.65;;;11.50;99.90;;;11.41;100.00;99055.94;5250568;28;20048;-87
2022/09/27 01:06:23;;;;;;;2.83;1.55;;;11.50;99.90;;;11.41;100.00;99053.31;5250240;28;20051;-88
2022/09/27 01:08:56;;;;;;;3.70;1.50;;;11.40;99.90;;;11.41;100.00;99053.31;5248880;28;20113;-89
2022/09/27 01:11:43;;;;;;;2.70;1.20;;;11.40;99.90;;;11.41;100.00;99048.09;5248528;28;20040;-87
2022/09/27 01:14:47;;;;;;;2.67;1.30;;;11.40;99.90;;;11.42;100.00;99054.19;5248324;28;20048;-88
2022/09/27 01:17:37;;;;;;;3.00;1.35;;;11.40;99.90;;;11.41;100.00;99044.63;5248720;28;20147;-88
2022/09/27 01:20:42;;;;;;;3.17;1.67;;;11.40;99.90;;;11.43;100.00;99063.75;5248029;28;20048;-87
2022/09/27 01:23:39;;;;;;;2.90;1.70;;;11.50;99.90;;;11.40;100.00;99059.38;5248160;28;20135;-87
2022/09/27 01:26:25;;;;;;;4.30;1.73;;;11.40;99.90;;;11.37;100.00;99040.25;5248625;28;20052;-88
2022/09/27 01:29:05;;;;;;;3.40;1.15;;;11.40;99.90;;;11.37;100.00;99053.31;5248217;28;20106;-88
2022/09/27 01:31:47;;;;;;;2.47;1.30;;;11.40;99.90;;;11.33;100.00;99057.63;5248228;28;20086;-87
2022/09/27 01:34:27;;;;;;;4.95;1.10;;;11.40;99.90;;;11.31;100.00;99059.34;5248167;28;20044;-87
2022/09/27 01:37:11;;;;;;;2.65;1.13;;;11.40;99.90;;;11.29;100.00;99058.50;5248439;28;20045;-89
2022/09/27 01:39:51;;;;;;;2.03;0.98;;;11.40;99.90;;;11.26;100.00;99054.97;5249662;28;20453;-88
2022/09/27 01:42:42;;;;;;;2.00;0.70;;;11.30;99.90;;;11.20;100.00;99063.66;5249643;28;20094;-87
2022/09/27 01:45:23;;;;;;;1.48;0.80;;;11.30;99.90;;;11.22;100.00;99063.69;5248320;28;20055;-88
2022/09/27 01:48:22;;;;;;;2.15;0.80;;;11.30;99.90;;;11.18;100.00;99069.72;5248966;28;20041;-89
2022/09/27 01:51:03;;;;;;;2.45;1.15;;;11.30;99.90;;;11.17;100.00;99057.56;5248600;28;20041;-88
2022/09/27 01:53:38;;;;;;;2.83;1.10;;;11.20;99.90;;;11.16;100.00;99066.25;5250011;28;20067;-87
2022/09/27 01:56:37;;;;;;;3.78;1.30;;;11.20;99.90;;;11.15;100.00;99073.22;5215208;28;20045;-88
2022/09/27 01:59:21;;;;;;;2.08;1.10;;;11.20;99.90;;;11.16;100.00;99068.84;5265581;28;20218;-88
2022/09/27 02:02:10;;;;;;;1.90;1.10;;;11.20;99.90;;;11.18;100.00;99073.22;5247842;28;20048;-87
2022/09/27 02:05:07;;;;;;;2.83;1.52;;;11.20;99.90;;;11.21;100.00;99064.50;5248886;28;20056;-88
2022/09/27 02:07:48;;;;;;;2.55;1.45;;;11.30;99.90;;;11.21;100.00;99068.00;5247861;28;20424;-88
2022/09/27 02:10:26;;;;;;;1.38;1.23;;;11.30;99.90;;;11.22;100.00;99064.53;5247779;28;20053;-86
2022/09/27 02:13:08;;;;;;;4.47;1.70;;;11.20;99.90;;;11.22;100.00;99071.50;5247656;28;20048;-87
2022/09/27 02:15:52;;;;;;;2.85;1.70;;;11.30;99.90;;;11.20;100.00;99065.38;5247614;28;20044;-87
2022/09/27 02:18:50;;;;;;;2.88;1.73;;;11.30;99.90;;;11.18;100.00;99077.56;5248408;28;20040;-87
2022/09/27 02:21:32;;;;;;;3.08;1.60;;;11.20;99.90;;;11.12;100.00;99079.25;5247490;28;20049;-88
2022/09/27 02:24:10;;;;;;;3.65;1.80;;;11.20;99.90;;;11.10;100.00;99075.78;5247410;28;20094;-88
2022/09/27 02:26:45;;;;;;;3.70;1.80;;;11.20;99.90;;;11.09;100.00;99076.66;5249929;28;20086;-88
2022/09/27 02:29:24;;;;;;;6.35;1.80;;;11.20;99.90;;;11.09;100.00;99079.25;5251369;28;20052;-87
2022/09/27 02:31:58;;;;;;;4.30;1.65;;;11.10;99.90;;;11.07;100.00;99078.34;5251249;28;20055;-87
2022/09/27 02:34:36;;;;;;;6.55;1.88;;;11.10;99.90;;;11.02;100.00;99074.88;5251239;28;20521;-88
2022/09/27 02:37:10;;;;;;;4.25;1.70;;;11.10;99.90;;;11.02;100.00;99079.19;5251524;28;20040;-88
2022/09/27 02:39:43;;;;;;;4.75;1.90;;;11.10;99.90;;;10.99;100.00;99080.06;5250793;28;20052;-88
2022/09/27 02:42:16;;;;;;;3.70;1.52;;;11.10;99.90;;;10.97;100.00;99078.31;5251243;28;20521;-88
2022/09/27 02:44:48;;;;;;;5.07;1.83;;;11.10;99.90;;;10.96;100.00;99082.66;5252686;28;20075;-88
2022/09/27 02:47:38;;;;;;;3.03;1.75;;;11.10;99.90;;;10.96;100.00;99087.88;5250729;28;20048;-88
2022/09/27 02:50:37;;;;;;;2.00;1.50;;;11.10;99.90;;;10.98;100.00;99091.34;5251217;28;20084;-87
2022/09/27 02:53:49;;;;;;;3.40;1.55;;;11.10;99.90;;;11.00;100.00;99094.81;5246358;28;20044;-89
2022/09/27 02:56:51;;;;;;;2.42;1.70;;;11.10;99.90;;;10.99;100.00;99092.22;5252465;28;20049;-88
2022/09/27 02:59:54;;;;;;;3.13;1.60;;;11.10;99.90;;;10.97;100.00;99089.59;5252079;28;20481;-87
2022/09/27 03:02:48;;;;;;;3.47;1.58;;;11.10;99.90;;;10.92;100.00;99096.53;5251968;28;20067;-86
2022/09/27 03:05:49;;;;;;;3.38;1.40;;;11.00;99.90;;;10.91;100.00;99088.69;5249976;28;20071;-87
2022/09/27 03:08:22;;;;;;;3.92;1.48;;;11.00;99.90;;;10.91;100.00;99092.19;5251763;28;20044;-87
2022/09/27 03:10:55;;;;;;;3.33;1.30;;;11.00;99.90;;;10.92;100.00;99098.25;5253331;28;20112;-87
2022/09/27 03:13:28;;;;;;;3.65;1.40;;;11.00;99.90;;;10.91;100.00;99100.00;5253604;28;20045;-88
2022/09/27 03:16:02;;;;;;;4.30;1.30;;;11.00;99.90;;;10.93;100.00;99100.00;5251931;28;20501;-88
2022/09/27 03:19:10;;;;;;;4.18;1.55;;;11.00;99.90;;;10.92;100.00;99106.94;5231149;28;20048;-88
2022/09/27 03:22:06;;;;;;;3.28;1.40;;;11.00;99.90;;;10.87;100.00;99103.44;5214925;28;20056;-87
2022/09/27 03:24:38;;;;;;;4.35;1.50;;;11.00;99.90;;;10.89;100.00;99117.38;5252004;28;20055;-86
2022/09/27 03:27:12;;;;;;;2.95;1.50;;;11.00;99.90;;;10.86;100.00;99117.34;5253043;28;20128;-87
2022/09/27 03:29:44;;;;;;;1.48;1.33;;;10.90;99.90;;;10.85;100.00;99116.47;5251943;28;20057;-88
2022/09/27 03:32:17;;;;;;;3.28;1.58;;;10.90;99.90;;;10.89;100.00;99112.16;5251931;28;20036;-88
2022/09/27 03:35:08;;;;;;;6.40;2.00;;;11.00;99.90;;;10.87;100.00;99119.06;5252836;28;20079;-88
2022/09/27 03:37:41;;;;;;;2.70;1.42;;;10.90;99.90;;;10.86;100.00;99128.63;5261597;22;20076;-83
2022/09/27 03:40:13;;;;;;;3.53;1.58;;;10.90;99.90;;;10.86;100.00;99125.16;5215015;28;20057;-82
2022/09/27 03:42:48;;;;;;;4.97;1.52;;;10.90;99.90;;;10.87;100.00;99124.28;5233894;28;20045;-82
2022/09/27 03:45:21;;;;;;;1.75;1.33;;;10.90;99.90;;;10.86;100.00;99132.97;5232392;28;20048;-82
2022/09/27 03:47:53;;;;;;;3.17;1.50;;;10.90;99.90;;;10.82;100.00;99131.19;5246239;28;20048;-82
2022/09/27 03:50:25;;;;;;;2.00;1.40;;;10.90;99.90;;;10.80;100.00;99132.94;5245471;28;20423;-81
2022/09/27 03:52:58;;;;;;;2.22;1.10;;;10.90;99.90;;;10.79;100.00;99133.78;5221203;28;20045;-80
2022/09/27 03:55:30;;;;;;;4.60;1.27;;;10.90;99.90;;;10.76;100.00;99131.19;5236682;28;20410;-80
2022/09/27 03:58:04;;;;;;;1.45;1.02;;;10.80;99.90;;;10.75;100.00;99138.09;5228778;28;20068;-81
2022/09/27 04:00:37;;;;;;;;;;;10.80;99.90;;;10.74;100.00;99143.31;5228887;28;20056;-82
2022/09/27 04:03:09;;;;;;;3.05;1.15;;;10.80;99.90;;;10.70;100.00;99142.41;5228682;28;19928;-81
2022/09/27 04:05:44;;;;;;;3.47;1.20;;;10.80;99.90;;;10.63;100.00;99134.53;5229724;28;20055;-83
2022/09/27 04:08:22;;;;;;;2.65;1.40;;;10.80;99.90;;;10.62;100.00;99143.19;5228884;28;20399;-82
2022/09/27 04:10:56;;;;;;;2.50;1.20;;;10.80;99.90;;;10.59;100.00;99147.53;5239157;28;20041;-82
2022/09/27 04:13:29;;;;;;;3.53;1.80;;;10.70;99.90;;;10.56;100.00;99138.81;5244562;28;20127;-82
2022/09/27 04:16:02;;;;;;;2.85;1.67;;;10.70;99.90;;;10.52;100.00;99148.34;5244735;28;20044;-82
2022/09/27 04:18:46;;;;;;;1.85;1.35;;;10.70;99.90;;;10.53;100.00;99150.09;5229031;28;20049;-83
2022/09/27 04:21:39;;;;;;;2.47;1.50;;;10.60;99.90;;;10.48;100.00;99146.56;5225508;28;20104;-81
2022/09/27 04:24:13;;;;;;;3.08;1.33;;;10.60;99.90;;;10.52;100.00;99156.16;5215436;28;20048;-82
2022/09/27 04:26:53;;;;;;;3.75;1.85;;;10.60;99.90;;;10.50;100.00;99155.28;5227733;28;20112;-82
2022/09/27 04:29:31;;;;;;;2.83;1.40;;;10.60;99.90;;;10.50;100.00;99155.28;5243925;28;20048;-83
2022/09/27 04:32:09;;;;;;;2.97;1.45;;;10.60;99.90;;;10.55;100.00;99157.91;5227770;28;20507;-82
2022/09/27 04:37:51;;;;;;;3.05;1.48;;;10.60;99.90;;;10.60;100.00;99151.88;5219903;28;20049;-82
2022/09/27 04:40:24;;;;;;;1.67;1.30;;;10.70;99.90;;;10.63;100.00;99151.06;5217153;28;20068;-84
2022/09/27 04:42:56;;;;;;;2.70;1.30;;;10.70;99.90;;;10.64;100.00;99152.78;5223630;28;20046;-82
2022/09/27 04:45:30;;;;;;;1.42;0.98;;;10.70;99.90;;;10.63;100.00;99156.25;5223413;28;20396;-83
2022/09/27 04:48:03;;;;;;;1.10;0.93;;;10.70;99.90;;;10.60;100.00;99151.88;5206819;28;20042;-83
2022/09/27 04:50:39;;;;;;;3.58;1.23;;;10.70;99.90;;;10.57;100.00;99159.69;5206167;28;20132;-82
2022/09/27 04:53:14;;;;;;;1.80;1.13;;;10.60;99.90;;;10.54;100.00;99161.38;5207465;28;20131;-82
2022/09/27 04:55:47;;;;;;;1.75;1.10;;;10.60;99.90;;;10.56;100.00;99170.97;5236756;28;20139;-83
2022/09/27 04:58:20;;;;;;;3.58;1.10;;;10.60;99.90;;;10.58;100.00;99171.84;5227037;28;20135;-83
2022/09/27 05:00:54;;;;;;;3.08;1.20;;;10.70;99.90;;;10.55;100.00;99169.19;5227425;28;20155;-81
2022/09/27 05:04:05;;;;;;;1.77;1.15;;;10.60;99.90;;;10.53;100.00;99177.88;5185634;28;20045;-83
2022/09/27 05:06:39;;;;;;;2.42;1.20;;;10.60;99.90;;;10.52;100.00;99176.13;5165652;28;20043;-82
2022/09/27 05:09:22;;;;;;;4.22;1.60;;;10.60;99.90;;;10.53;100.00;99180.47;5201567;28;20053;-83
2022/09/27 05:11:56;;;;;;;2.80;1.52;;;10.60;99.90;;;10.51;100.00;99182.22;5227709;28;20041;-83
2022/09/27 05:14:46;;;;;;;2.83;1.30;;;10.60;99.90;;;10.50;100.00;99191.75;5229111;28;20134;-82
2022/09/27 05:17:22;;;;;;;2.63;1.50;;;10.60;99.90;;;10.53;100.00;99196.09;5229059;28;20045;-83
2022/09/27 05:20:01;;;;;;;1.67;1.23;;;10.60;99.90;;;10.51;100.00;99188.28;5228529;28;20056;-82
2022/09/27 05:22:56;;;;;;;2.50;1.30;;;10.60;99.90;;;10.52;100.00;99190.03;5219470;28;20045;-83
2022/09/27 05:25:30;;;;;;;1.55;1.33;;;10.60;99.90;;;10.55;100.00;99184.84;5218520;28;20045;-83
2022/09/27 05:28:03;;;;;;;3.08;1.73;;;10.60;99.90;;;10.51;100.00;99203.03;5226774;28;20049;-83
2022/09/27 05:30:36;;;;;;;2.55;1.60;;;10.60;99.90;;;10.48;100.00;99206.47;5226509;28;20055;-82
2022/09/27 05:33:17;;;;;;;2.20;1.48;;;10.60;99.90;;;10.47;100.00;99209.94;5227756;28;20049;-84
2022/09/27 05:35:54;;;;;;;2.58;1.40;;;10.60;99.90;;;10.46;100.00;99216.00;5228745;28;20140;-83
2022/09/27 05:38:28;;;;;;;3.58;1.67;;;10.50;99.90;;;10.45;100.00;99213.41;5216558;28;20496;-81
2022/09/27 05:41:04;;;;;;;1.30;1.20;;;10.50;99.90;;;10.44;100.00;99216.88;5221339;28;20060;-84
2022/09/27 05:43:36;;;;;;;2.78;1.40;;;10.60;99.90;;;10.46;100.00;99223.84;5226396;28;20048;-83
2022/09/27 05:46:08;;;;;;;3.28;1.15;;;10.50;99.90;;;10.46;100.00;99226.44;5226495;28;20090;-81
2022/09/27 05:48:45;;;;;;;3.53;1.60;;;10.60;99.90;;;10.41;100.00;99222.91;5226242;28;20048;-82
2022/09/27 05:51:18;;;;;;;2.00;1.45;;;10.50;99.90;;;10.44;100.00;99222.09;5230206;28;20052;-81
2022/09/27 05:53:52;;;;;;;3.13;1.30;;;10.50;99.90;;;10.46;100.00;99220.34;5217046;28;20081;-81
2022/09/27 05:56:31;;;;;;;2.42;1.45;;;10.60;99.90;;;10.48;100.00;99229.91;5228329;28;20045;-82
2022/09/27 05:59:18;;;;;;;2.20;1.35;;;10.60;99.90;;;10.45;100.00;99219.47;5228957;28;20099;-82
2022/09/27 06:02:11;;;;;;;3.33;1.23;;;10.60;99.90;;;10.50;100.00;99227.34;5233620;28;20060;-82
2022/09/27 06:05:20;;;;;;;3.65;1.27;;;10.60;99.90;;;10.51;100.00;99235.19;5232759;28;20550;-79
2022/09/27 06:08:13;;;;;;;2.85;1.10;;;10.60;99.90;;;10.57;100.00;99242.19;5199859;28;20053;-79
2022/09/27 06:10:52;;;;;;;3.25;1.50;;;10.60;99.90;;;10.60;100.00;99250.03;5229772;28;20418;-79
2022/09/27 06:13:24;;;;;;;2.60;1.52;;;10.60;99.90;;;10.60;100.00;99255.22;5230064;28;20041;-78
2022/09/27 06:15:58;;;;;;;2.55;1.15;;;10.70;99.90;;;10.61;100.00;99259.56;5230358;28;20052;-79
2022/09/27 06:18:30;;;;;;;3.00;1.75;;;10.70;99.90;;;10.65;100.00;99247.47;5232162;28;20135;-79
2022/09/27 06:21:06;;;;;;;2.10;1.30;;;10.70;99.90;;;10.64;100.00;99251.81;5256132;28;20052;-79
2022/09/27 06:23:39;;;;;;;2.55;1.23;;;10.70;99.90;;;10.66;100.00;99260.50;5231145;28;20107;-79
2022/09/27 06:26:21;;;;;;;2.63;1.30;;;10.70;99.90;;;10.69;100.00;99257.03;5230708;28;20055;-81
2022/09/27 06:29:16;;;;;;;2.22;1.45;;;10.80;99.90;;;10.69;100.00;99254.44;5222750;28;20088;-79
2022/09/27 06:32:02;;;;;;;2.78;1.55;;;10.70;99.90;;;10.75;100.00;99257.09;5230355;28;20049;-80
2022/09/27 06:34:59;;;;;;;1.45;1.17;;;10.80;99.90;;;10.73;100.00;99256.22;5230829;28;20060;-79
2022/09/27 06:37:33;;;;;;;3.00;1.33;;;10.80;99.90;;;10.72;100.00;99262.31;5229907;28;20564;-78
2022/09/27 06:40:08;;;;;;;4.10;1.38;;;10.80;99.90;;;10.73;100.00;99266.66;5230767;28;20056;-78
2022/09/27 06:43:03;;;;;;;2.88;2.00;;;10.70;99.90;;;10.73;100.00;99270.13;5231461;28;20445;-79
2022/09/27 06:46:07;;;;;;;3.22;1.50;;;10.80;99.90;;;10.77;100.00;99265.84;5205895;28;20243;-79
2022/09/27 06:49:18;;;;;;;3.63;1.75;;;10.80;99.90;;;10.82;100.00;99275.44;5223382;28;20048;-79
2022/09/27 06:51:53;;;;;;;3.63;1.83;;;10.90;99.90;;;10.86;100.00;99269.38;5230571;28;20048;-79
2022/09/27 06:54:29;;;;;;;2.53;1.50;;;10.90;99.90;;;10.91;100.00;99281.59;5229957;28;20049;-79
2022/09/27 06:57:01;;;;;;;2.30;1.38;;;10.90;99.90;;;10.97;100.00;99277.31;5231208;28;20091;-79
2022/09/27 07:02:47;;;;;;;2.55;1.20;;;11.00;99.90;;;11.11;100.00;99285.25;5213462;28;20044;-81
2022/09/27 07:05:37;;;;;;;1.70;0.95;;;11.10;99.90;;;11.20;100.00;99284.44;5232531;28;20049;-79
2022/09/27 07:08:34;;;;;;;4.97;1.30;;;11.20;99.90;;;11.28;100.00;99291.50;5230208;28;20076;-80
2022/09/27 07:11:08;;;;;;;4.15;1.48;;;11.20;99.90;;;11.30;100.00;99294.97;5231186;28;20172;-80
2022/09/27 07:13:42;;;;;;;2.10;1.08;;;11.30;99.90;;;11.36;100.00;99296.78;5231291;28;20049;-79
2022/09/27 07:16:15;;;;;;;2.15;1.10;;;11.30;99.90;;;11.38;100.00;99300.25;5230043;28;20049;-80
2022/09/27 07:18:49;;;;;;;2.33;1.20;;;11.40;99.90;;;11.38;100.00;99301.13;5213369;28;20052;-80
2022/09/27 07:21:22;;;;;;;2.45;1.20;;;11.40;99.90;;;11.42;100.00;99302.03;5209855;28;20042;-79
2022/09/27 07:23:54;;;;;;;2.50;1.17;;;11.40;99.90;;;11.44;100.00;99310.75;5210740;28;20534;-81
2022/09/27 07:26:29;;;;;;;2.65;1.40;;;11.40;99.90;;;11.46;100.00;99314.22;5210407;28;20045;-81
2022/09/27 07:29:01;;;;;;;1.25;1.00;;;11.40;99.90;;;11.43;100.00;99318.56;5227091;28;20045;-80
2022/09/27 07:31:34;;;;;;;1.58;0.90;;;11.40;99.90;;;11.45;100.00;99311.63;5210328;28;20431;-80
2022/09/27 07:34:07;;;;;;;1.27;0.90;;;11.40;99.90;;;11.52;100.00;99311.66;5210315;28;20099;-81
2022/09/27 07:36:40;;;;;;;1.85;1.10;;;11.40;99.90;;;11.59;100.00;99321.28;5210258;28;20075;-80
2022/09/27 07:39:13;;;;;;;2.08;1.00;;;11.50;99.90;;;11.61;100.00;99322.19;5211266;28;20045;-80
2022/09/27 07:41:47;;;;;;;1.63;0.88;;;11.60;99.90;;;11.74;100.00;99317.94;5210940;28;20495;-80
2022/09/27 07:44:19;;;;;;;2.25;0.80;;;11.70;99.90;;;11.83;100.00;99320.63;5211571;28;20045;-80
2022/09/27 07:47:09;;;;;;;1.30;0.80;;;11.70;99.90;;;11.91;100.00;99329.38;5208308;28;20045;-80
2022/09/27 07:50:14;;;;;;;3.03;0.80;;;11.80;99.90;;;11.91;100.00;99336.31;5192731;28;20578;-82
2022/09/27 07:53:15;;;;;;;1.48;0.70;;;11.80;99.90;;;11.93;100.00;99334.59;5177770;28;20045;-80
2022/09/27 07:55:56;;;;;;;1.27;0.88;;;11.80;99.90;;;11.90;100.00;99327.63;5193758;28;20050;-81
2022/09/27 07:58:32;;;;;;;1.58;0.90;;;11.80;99.90;;;11.79;100.00;99344.91;5191862;28;20053;-80
2022/09/27 08:01:07;;;;;;;1.45;0.93;;;11.80;99.90;;;11.78;100.00;99342.28;5190880;28;20053;-81
2022/09/27 08:03:39;;;;;;;2.00;0.93;;;11.70;99.90;;;11.74;100.00;99340.56;5208327;28;20052;-80
2022/09/27 08:06:12;;;;;;;1.52;1.10;;;11.70;99.90;;;11.71;100.00;99344.00;5190686;28;20053;-80
2022/09/27 08:08:44;;;;;;;0.88;0.85;;;11.70;99.90;;;11.77;100.00;99348.38;5191937;28;20057;-79
2022/09/27 08:11:20;;;;;;;2.63;1.02;;;11.70;99.90;;;11.82;100.00;99354.56;5203409;28;20022;-80
2022/09/27 08:13:56;;;;;;;1.35;1.20;;;11.70;99.90;;;11.90;100.00;99347.63;5208321;28;20053;-78
2022/09/27 08:16:34;;;;;;;0.80;0.65;;;11.80;99.90;;;11.95;100.00;99356.38;5190492;28;20072;-79
2022/09/27 08:19:25;;;;;;;1.00;0.90;;;11.90;99.90;;;12.02;100.00;99357.28;5191709;28;20052;-81
2022/09/27 08:22:09;;;;;;;1.52;0.70;;;11.90;99.90;;;12.09;100.00;99353.84;5191972;28;20050;-79
2022/09/27 08:24:54;;;;;;;1.42;0.80;;;12.00;99.90;;;12.09;100.00;99359.94;5206943;28;20046;-79
2022/09/27 08:27:54;;;;;;;2.00;0.90;;;12.00;99.90;;;12.09;100.00;99365.16;5191666;28;20049;-79
2022/09/27 08:30:41;;;;;;;1.00;0.90;;;12.00;99.90;;;12.10;100.00;99358.19;5189739;28;20049;-79
2022/09/27 08:33:13;;;;;;;1.33;0.80;;;12.00;99.90;;;12.12;100.00;99364.31;5189602;28;20050;-79
2022/09/27 08:35:47;;;;;;;0.80;0.80;;;12.00;99.90;;;12.11;100.00;99367.78;5189049;28;20049;-79
2022/09/27 08:38:19;;;;;;;0.90;0.90;;;12.00;99.90;;;12.09;100.00;99364.28;5188379;28;20068;-80
2022/09/27 08:40:56;;;;;;;2.08;1.00;;;12.00;99.90;;;12.09;100.00;99364.28;5189124;28;20066;-80
2022/09/27 08:43:37;;;;;;;1.35;0.90;;;12.00;99.90;;;12.07;100.00;99372.13;5204030;28;20074;-80
2022/09/27 08:46:26;;;;;;;1.08;0.93;;;12.00;99.90;;;12.07;100.00;99366.91;5203997;28;20057;-80
2022/09/27 08:49:09;;;;;;;2.08;0.80;;;12.00;99.90;;;12.08;100.00;99370.38;5188395;28;20049;-81
2022/09/27 08:51:45;;;;;;;0.88;0.80;;;12.00;99.90;;;12.09;100.00;99366.91;5208414;28;20065;-82
2022/09/27 08:54:22;;;;;;;1.52;1.10;;;12.00;99.90;;;12.11;100.00;99370.38;5191747;28;20049;-82
2022/09/27 08:57:01;;;;;;;1.55;1.02;;;12.00;99.90;;;12.11;100.00;99362.56;5192141;28;20050;-82
2022/09/27 08:59:39;;;;;;;1.25;1.15;;;12.00;99.90;;;12.12;100.00;99374.75;5188875;28;20042;-80
2022/09/27 09:02:23;;;;;;;0.93;0.82;;;12.00;99.90;;;12.13;100.00;99361.72;5188839;28;20458;-80
2022/09/27 09:05:03;;;;;;;2.05;0.90;;;12.10;99.90;;;12.15;100.00;99359.13;5189324;28;20565;-81
2022/09/27 09:07:54;;;;;;;0.85;0.82;;;12.10;99.90;;;12.14;100.00;99368.69;5186600;28;20050;-80
2022/09/27 09:14:07;;;;;;;2.63;1.00;;;12.10;99.90;;;12.31;100.00;99360.06;5187088;28;20042;-80
2022/09/27 09:16:52;;;;;;;1.25;0.90;;;12.20;99.90;;;12.44;100.00;99361.84;5187477;28;20045;-80
2022/09/27 09:19:47;;;;;;;0.85;0.80;;;12.30;99.90;;;12.64;100.00;99365.41;5188921;28;20072;-82
2022/09/27 09:23:05;;;;;;;0.85;0.80;;;12.40;99.90;;;12.94;100.00;99363.78;5188131;28;20065;-80
2022/09/27 09:25:45;;;;;;;1.30;1.17;;;12.60;99.90;;;13.38;100.00;99358.66;5219007;28;20070;-80
2022/09/27 09:28:34;;;;;;;1.30;1.10;;;12.90;99.90;;;13.85;100.00;99348.16;5204340;28;20500;-80
2022/09/27 09:31:14;;;;;;;1.15;1.02;;;13.30;99.90;;;14.38;100.00;99352.41;5189583;28;20128;-80
2022/09/27 09:33:53;;;;;;;1.20;0.80;;;13.80;99.90;;;14.63;100.00;99347.97;5189951;28;20500;-80
2022/09/27 09:36:32;;;;;;;1.20;0.80;;;14.10;99.90;;;14.82;100.00;99359.25;5215329;23;20084;-85
2022/09/27 09:39:12;;;;;;;2.00;1.20;;;14.30;99.90;;;14.99;100.00;99347.75;5183039;28;20468;-87
2022/09/27 09:42:03;;;;;;;0.95;0.80;;;14.50;99.90;;;15.07;100.00;99359.97;5199304;28;20079;-86
2022/09/27 09:44:47;;;;;;;0.90;0.90;;;14.60;99.90;;;15.05;100.00;99355.59;5214298;28;20053;-85
2022/09/27 09:47:30;;;;;;;1.15;0.70;;;14.60;99.90;;;14.99;100.00;99347.75;5213777;28;20041;-81
2022/09/27 09:50:06;;;;;;;2.28;0.68;;;14.60;99.90;;;14.99;100.00;99347.75;5194182;28;20052;-89
2022/09/27 09:52:47;;;;;;;1.88;0.82;;;14.70;99.90;;;14.96;100.00;99343.41;5197932;28;20511;-84
2022/09/27 09:55:24;;;;;;;0.80;0.80;;;14.70;99.90;;;14.93;100.00;99352.19;5197763;28;20397;-84
2022/09/27 09:58:08;;;;;;;0.85;0.75;;;14.60;99.90;;;14.85;100.00;99351.34;5214214;28;20064;-85
2022/09/27 10:00:52;;;;;;;1.40;1.05;;;14.60;99.90;;;14.77;100.00;99341.78;5196555;28;20049;-84
2022/09/27 10:03:25;;;;;;;15.30;1.77;;;14.50;99.90;;;14.65;100.00;99348.81;5197946;28;20049;-83
2022/09/27 10:05:57;;;;;;;18.10;2.00;;;14.40;99.90;;;14.51;100.00;99339.28;5214081;28;20077;-84
2022/09/27 10:08:31;;;;;;;7.00;1.30;;;14.30;99.90;;;14.44;100.00;99348.88;5197296;28;20057;-86
2022/09/27 10:11:27;;;;;;;7.97;1.33;;;14.20;99.90;;;14.35;100.00;99344.56;5215093;28;20065;-84
2022/09/27 10:14:20;;;;;;;2.45;1.13;;;14.20;99.90;;;14.21;100.00;99345.47;5198161;28;20049;-85
2022/09/27 10:16:59;;;;;;;5.10;1.65;;;14.00;99.90;;;14.07;100.00;99332.41;5197260;28;20069;-84
2022/09/27 10:19:33;;;;;;;1.00;0.80;;;13.90;99.90;;;13.93;100.00;99342.03;5213871;28;20404;-84
2022/09/27 10:22:18;;;;;;;1.98;1.08;;;13.80;99.90;;;13.84;100.00;99346.44;5197830;28;20065;-85
2022/09/27 10:24:58;;;;;;;1.40;0.93;;;13.70;99.90;;;13.78;100.00;99340.31;5198420;28;20042;-85
2022/09/27 10:27:54;;;;;;;1.52;1.02;;;13.60;99.90;;;13.76;100.00;99342.94;5197841;28;20072;-86
2022/09/27 10:30:33;;;;;;;2.25;1.10;;;13.60;99.90;;;13.80;100.00;99334.19;5196277;28;20050;-86
2022/09/27 10:33:17;;;;;;;5.32;3.83;;;13.60;99.90;;;13.88;100.00;99330.69;5196958;28;20104;-84
2022/09/27 10:35:52;;;;;;;6.40;4.63;;;13.70;99.90;;;13.87;100.00;99336.81;5197389;28;20056;-84
2022/09/27 10:38:36;;;;;;;5.97;3.72;;;13.70;99.90;;;13.87;100.00;99331.56;5197953;28;20046;-84
2022/09/27 10:41:36;;;;;;;4.18;2.67;;;13.70;99.90;;;13.93;100.00;99328.94;5197729;28;20061;-86
2022/09/27 10:44:27;;;;;;;1.95;1.40;;;13.70;99.90;;;13.98;100.00;99327.19;5197060;28;20049;-85
2022/09/27 10:47:27;;;;;;;1.45;1.30;;;13.80;99.90;;;13.95;100.00;99328.06;5211545;28;20049;-85
2022/09/27 10:50:34;;;;;;;2.03;1.65;;;13.80;99.90;;;14.03;100.00;99326.31;5205624;28;20666;-86
2022/09/27 10:53:17;;;;;;;2.72;1.20;;;13.80;99.90;;;13.97;100.00;99328.94;5200058;28;20141;-85
2022/09/27 10:55:52;;;;;;;1.05;0.93;;;13.80;99.90;;;13.93;100.00;99323.69;5201304;28;20060;-83
2022/09/27 10:58:30;;;;;;;2.63;1.02;;;13.80;99.90;;;13.88;100.00;99325.44;5218356;28;20045;-84
2022/09/27 11:01:05;;;;;;;2.03;1.15;;;13.70;99.90;;;13.88;100.00;99322.84;5201612;28;20053;-84
2022/09/27 11:03:51;;;;;;;1.00;0.93;;;13.70;99.90;;;13.90;100.00;99321.97;5202335;28;20046;-85
2022/09/27 11:06:36;;;;;;;1.02;0.93;;;13.70;99.90;;;14.03;100.00;99317.56;5200786;28;20042;-85
2022/09/27 11:09:25;;;;;;;3.80;1.17;;;13.80;99.90;;;14.20;100.00;99313.13;5218800;28;20129;-87
2022/09/27 11:12:11;;;;;;;2.03;0.98;;;13.90;99.90;;;14.43;100.00;99314.81;5204702;28;20049;-85
2022/09/27 11:14:51;;;;;;;1.48;0.85;;;14.10;99.90;;;14.49;100.00;99315.69;5204601;28;20110;-85
2022/09/27 11:17:32;;;;;;;3.10;1.00;;;14.20;99.90;;;14.56;100.00;99306.91;5203733;28;20059;-85
2022/09/27 11:20:31;;;;;;;1.00;0.90;;;14.30;99.90;;;14.67;100.00;99314.75;5204635;28;20053;-87